Time;durP1;ratioP1;P1;durP2;ratioP2;P2;SDS_P1;SDS_P2;PMS_P1;PMS_P2;Temp;Humidity;BMP_temperature;BMP_pressure;BME280_temperature;BME280_humidity;BME280_pressure;Samples;Min_cycle;Max_cycle;Signal;HPM_P1;HPM_P2
2022/05/18 00:00:08;;;;;;;27.30;20.92;;;15.90;99.90;;;;;;5050096;28;37888;-75
2022/05/18 00:02:34;;;;;;;27.70;21.70;;;15.90;99.90;;;;;;5047527;27;38534;-75
2022/05/18 00:05:00;;;;;;;26.15;20.88;;;15.80;99.90;;;;;;5080732;27;40425;-75
2022/05/18 00:07:26;;;;;;;25.73;21.83;;;15.80;99.90;;;;;;5056493;27;36428;-75
2022/05/18 00:09:53;;;;;;;27.23;20.75;;;15.80;99.90;;;;;;5056047;28;38700;-75
2022/05/18 00:12:19;;;;;;;25.67;21.23;;;15.80;99.90;;;;;;5051030;27;37818;-75
2022/05/18 00:14:45;;;;;;;25.65;21.13;;;15.70;99.90;;;;;;5048817;27;38251;-75
2022/05/18 00:17:11;;;;;;;27.63;22.27;;;15.70;99.90;;;;;;5059536;27;38805;-75
2022/05/18 00:19:38;;;;;;;28.13;22.52;;;15.70;99.90;;;;;;5059337;28;38950;-75
2022/05/18 00:22:04;;;;;;;28.23;22.80;;;15.70;99.90;;;;;;5064049;27;38504;-75
2022/05/18 00:24:30;;;;;;;31.85;22.77;;;15.70;99.90;;;;;;5049273;27;39695;-75
2022/05/18 00:26:56;;;;;;;28.50;22.13;;;15.60;99.90;;;;;;5051453;28;39250;-75
2022/05/18 00:29:23;;;;;;;25.75;22.08;;;15.50;99.90;;;;;;5062068;27;38824;-75
2022/05/18 00:31:49;;;;;;;30.40;23.42;;;15.50;99.90;;;;;;5055120;28;38323;-75
2022/05/18 00:34:18;;;;;;;30.42;23.50;;;15.40;99.90;;;;;;5047032;27;38428;-75
2022/05/18 00:36:44;;;;;;;30.67;24.02;;;15.40;99.90;;;;;;5056441;28;40189;-75
2022/05/18 00:39:11;;;;;;;33.72;23.73;;;15.40;99.90;;;;;;5043817;27;38639;-74
2022/05/18 00:41:38;;;;;;;31.13;24.33;;;15.50;99.90;;;;;;5050303;28;38838;-75
2022/05/18 00:44:05;;;;;;;31.70;24.48;;;15.50;99.90;;;;;;5044508;27;39511;-75
2022/05/18 00:46:31;;;;;;;29.00;23.08;;;15.50;99.90;;;;;;5041216;27;39373;-75
2022/05/18 00:48:58;;;;;;;30.83;23.05;;;15.50;99.90;;;;;;5048624;27;37805;-75
2022/05/18 00:51:46;;;;;;;30.67;22.50;;;15.60;99.90;;;;;;5055030;27;38937;-75
2022/05/18 00:54:42;;;;;;;27.85;23.13;;;15.50;99.90;;;;;;5051932;27;38589;-75
2022/05/18 00:57:15;;;;;;;30.40;21.48;;;15.50;99.90;;;;;;5045150;28;39005;-75
2022/05/18 00:59:44;;;;;;;;;;;15.50;99.90;;;;;;5057327;27;38069;-75
2022/05/18 01:02:10;;;;;;;28.00;20.85;;;15.40;99.90;;;;;;5049220;28;35964;-75
2022/05/18 01:04:39;;;;;;;28.35;22.42;;;15.40;99.90;;;;;;5053676;27;38823;-75
2022/05/18 01:07:10;;;;;;;31.65;24.27;;;15.40;99.90;;;;;;5054395;27;38307;-75
2022/05/18 01:09:41;;;;;;;34.27;26.93;;;15.40;99.90;;;;;;5052706;27;37909;-75
2022/05/18 01:12:09;;;;;;;30.70;24.27;;;15.40;99.90;;;;;;5069608;27;37951;-75
2022/05/18 01:14:57;;;;;;;28.63;24.10;;;15.40;99.90;;;;;;5051981;27;38970;-75
2022/05/18 01:17:29;;;;;;;27.63;23.02;;;15.50;99.90;;;;;;5055268;27;40308;-75
2022/05/18 01:19:58;;;;;;;28.77;23.42;;;15.50;99.90;;;;;;5050798;28;39268;-75
2022/05/18 01:22:54;;;;;;;27.80;22.50;;;15.50;99.90;;;;;;5055059;27;37437;-75
2022/05/18 01:25:48;;;;;;;28.20;23.40;;;15.50;99.90;;;;;;5047654;27;39385;-75
2022/05/18 01:28:14;;;;;;;31.45;24.38;;;15.40;99.90;;;;;;5042827;28;38167;-75
2022/05/18 01:30:47;;;;;;;34.80;26.80;;;15.40;99.90;;;;;;5054826;28;39133;-75
2022/05/18 01:33:15;;;;;;;31.85;25.52;;;15.40;99.90;;;;;;5055852;27;38471;-75
2022/05/18 01:35:45;;;;;;;29.45;24.55;;;15.40;99.90;;;;;;5051264;28;38861;-75
2022/05/18 01:38:14;;;;;;;32.47;25.67;;;15.40;99.90;;;;;;5042966;27;40025;-75
2022/05/18 01:41:07;;;;;;;34.00;26.98;;;15.40;99.90;;;;;;5049935;28;38508;-75
2022/05/18 01:44:06;;;;;;;30.67;24.02;;;15.40;99.90;;;;;;5065144;28;47078;-75
2022/05/18 01:46:32;;;;;;;33.72;26.80;;;15.40;99.90;;;;;;5051820;28;45097;-75
2022/05/18 01:48:58;;;;;;;29.45;24.85;;;15.40;99.90;;;;;;5056337;27;38459;-75
2022/05/18 01:51:31;;;;;;;34.33;27.33;;;15.40;99.90;;;;;;5049743;27;38062;-75
2022/05/18 01:53:58;;;;;;;39.95;28.67;;;15.40;99.90;;;;;;5054797;27;38816;-75
2022/05/18 01:56:24;;;;;;;39.83;27.73;;;15.50;99.90;;;;;;5054827;28;39610;-75
2022/05/18 01:58:51;;;;;;;37.25;29.20;;;15.50;99.90;;;;;;5046694;27;39080;-75
2022/05/18 02:01:17;;;;;;;37.53;27.80;;;15.50;99.90;;;;;;5052747;27;39338;-75
2022/05/18 02:03:43;;;;;;;35.38;27.88;;;15.60;99.90;;;;;;5055516;27;38116;-75
2022/05/18 02:06:09;;;;;;;37.35;30.35;;;15.50;99.90;;;;;;5057293;27;38407;-75
2022/05/18 02:08:35;;;;;;;36.80;26.58;;;15.60;99.90;;;;;;5053431;27;38237;-75
2022/05/18 02:11:02;;;;;;;41.53;32.72;;;15.60;99.90;;;;;;5035942;27;40155;-75
2022/05/18 02:13:28;;;;;;;40.35;30.00;;;15.60;99.90;;;;;;5051439;27;38930;-75
2022/05/18 02:15:54;;;;;;;37.88;29.77;;;15.70;99.90;;;;;;5050705;28;37115;-75
2022/05/18 02:18:20;;;;;;;36.72;28.83;;;15.80;99.90;;;;;;5060606;27;38671;-75
2022/05/18 02:20:46;;;;;;;40.17;31.10;;;15.80;99.90;;;;;;5063617;27;37138;-75
2022/05/18 02:23:12;;;;;;;36.95;30.80;;;15.80;99.90;;;;;;5051730;27;37532;-75
2022/05/18 02:25:38;;;;;;;39.33;31.10;;;15.90;99.90;;;;;;5053742;28;38427;-75
2022/05/18 02:28:05;;;;;;;40.35;31.25;;;15.90;99.90;;;;;;5058964;27;38535;-77
2022/05/18 02:30:32;;;;;;;38.08;30.17;;;15.90;99.90;;;;;;5047903;27;39634;-75
2022/05/18 02:32:58;;;;;;;43.28;33.00;;;15.90;99.90;;;;;;5049159;28;38178;-75
2022/05/18 02:35:24;;;;;;;37.25;31.63;;;15.90;99.90;;;;;;5051510;27;40795;-75
2022/05/18 02:37:50;;;;;;;40.88;30.85;;;16.00;99.90;;;;;;5049336;28;40003;-75
2022/05/18 02:40:16;;;;;;;39.00;30.20;;;16.10;99.90;;;;;;5053286;27;38450;-75
2022/05/18 02:42:42;;;;;;;47.67;35.03;;;16.10;99.90;;;;;;5066005;27;38009;-75
2022/05/18 02:45:09;;;;;;;41.97;33.28;;;16.10;99.90;;;;;;5056818;28;40694;-75
2022/05/18 02:47:36;;;;;;;45.75;33.45;;;16.20;99.90;;;;;;5053217;28;39011;-75
2022/05/18 02:50:02;;;;;;;44.58;32.78;;;16.20;99.90;;;;;;5053064;27;39852;-75
2022/05/18 02:52:28;;;;;;;38.20;30.15;;;16.30;99.90;;;;;;5052110;28;37980;-75
2022/05/18 02:57:39;;;;;;;39.35;33.20;;;16.20;99.90;;;;;;5051640;27;49060;-75
2022/05/18 03:00:07;;;;;;;39.33;29.92;;;16.30;99.90;;;;;;5052211;28;38840;-75
2022/05/18 03:02:34;;;;;;;41.55;31.23;;;16.40;99.90;;;;;;5087901;27;38150;-75
2022/05/18 03:05:01;;;;;;;36.83;27.83;;;16.40;99.90;;;;;;5054100;27;38403;-75
2022/05/18 03:07:27;;;;;;;37.97;30.27;;;16.50;99.90;;;;;;5049786;28;46673;-75
2022/05/18 03:09:53;;;;;;;36.20;28.25;;;16.40;99.90;;;;;;5054299;28;38137;-75
2022/05/18 03:12:19;;;;;;;35.60;27.33;;;16.40;99.90;;;;;;5052897;27;38048;-75
2022/05/18 03:14:45;;;;;;;36.35;27.88;;;16.50;99.90;;;;;;5051840;28;39733;-75
2022/05/18 03:17:13;;;;;;;40.83;28.15;;;16.50;99.90;;;;;;5052739;27;39110;-75
2022/05/18 03:19:39;;;;;;;36.00;27.10;;;16.50;99.90;;;;;;5053408;27;39182;-74
2022/05/18 03:24:50;;;;;;;32.90;27.95;;;16.40;99.90;;;;;;5054927;28;39080;-75
2022/05/18 03:27:16;;;;;;;38.38;29.58;;;16.30;99.90;;;;;;5049610;28;39164;-75
2022/05/18 03:29:42;;;;;;;35.92;28.95;;;16.30;99.90;;;;;;5050054;27;39221;-75
2022/05/18 03:32:08;;;;;;;36.90;30.17;;;16.20;99.90;;;;;;5054786;27;37280;-75
2022/05/18 03:34:35;;;;;;;34.35;27.88;;;16.20;99.90;;;;;;5050318;27;39909;-75
2022/05/18 03:37:01;;;;;;;36.03;28.35;;;16.10;99.90;;;;;;5056175;27;38585;-75
2022/05/18 03:39:28;;;;;;;36.33;29.42;;;16.10;99.90;;;;;;5055029;28;47830;-75
2022/05/18 03:41:54;;;;;;;36.67;29.73;;;16.00;99.90;;;;;;5052846;27;37158;-75
2022/05/18 03:44:20;;;;;;;36.35;30.13;;;16.00;99.90;;;;;;5049883;28;39279;-75
2022/05/18 03:46:46;;;;;;;33.03;26.80;;;16.00;99.90;;;;;;5048495;28;39182;-75
2022/05/18 03:49:12;;;;;;;33.70;28.50;;;16.00;99.90;;;;;;5068525;27;38609;-75
2022/05/18 03:51:38;;;;;;;35.45;31.08;;;16.00;99.90;;;;;;5054964;27;37254;-75
2022/05/18 03:54:06;;;;;;;32.88;29.40;;;16.00;99.90;;;;;;5060743;27;36997;-75
2022/05/18 03:56:33;;;;;;;32.70;27.30;;;16.00;99.90;;;;;;5056022;27;39028;-75
2022/05/18 03:59:00;;;;;;;31.95;25.08;;;16.10;99.90;;;;;;5051400;28;39772;-75
2022/05/18 04:01:26;;;;;;;35.95;28.17;;;16.20;99.90;;;;;;5049009;27;38391;-74
2022/05/18 04:03:53;;;;;;;32.35;26.98;;;16.20;99.90;;;;;;5047458;27;38375;-74
2022/05/18 04:06:20;;;;;;;28.92;25.40;;;16.30;99.90;;;;;;5046667;27;38066;-75
2022/05/18 04:08:46;;;;;;;32.30;26.70;;;16.30;99.90;;;;;;5045946;28;36758;-75
2022/05/18 04:11:12;;;;;;;32.25;25.25;;;16.40;99.90;;;;;;5036843;28;38181;-76
2022/05/18 04:13:39;;;;;;;32.15;24.10;;;16.40;99.90;;;;;;5058749;27;39503;-75
2022/05/18 04:16:05;;;;;;;33.63;27.23;;;16.50;99.90;;;;;;5051300;27;38876;-75
2022/05/18 04:18:32;;;;;;;31.80;26.50;;;16.50;99.90;;;;;;5047556;27;37473;-75
2022/05/18 04:21:00;;;;;;;32.03;26.38;;;16.50;99.90;;;;;;5046186;28;39140;-75
2022/05/18 04:23:26;;;;;;;35.83;28.75;;;16.60;99.90;;;;;;5045614;27;38814;-76
2022/05/18 04:25:53;;;;;;;30.58;26.75;;;16.60;99.90;;;;;;5052269;27;39589;-75
2022/05/18 04:28:20;;;;;;;36.67;28.75;;;16.60;99.90;;;;;;5045393;28;37742;-75
2022/05/18 04:30:47;;;;;;;33.83;27.13;;;16.70;99.90;;;;;;5051946;28;37672;-75
2022/05/18 04:33:20;;;;;;;34.97;26.98;;;16.70;99.90;;;;;;5047084;27;38207;-75
2022/05/18 04:35:50;;;;;;;32.15;25.52;;;16.80;99.90;;;;;;5045780;27;37069;-76
2022/05/18 04:38:18;;;;;;;29.70;24.73;;;16.90;99.90;;;;;;5042470;27;36991;-76
2022/05/18 04:40:44;;;;;;;34.65;23.10;;;17.10;99.90;;;;;;5046697;28;37908;-75
2022/05/18 04:43:10;;;;;;;27.83;21.73;;;17.20;99.90;;;;;;5050219;27;39324;-75
2022/05/18 04:45:39;;;;;;;29.52;22.73;;;17.30;99.90;;;;;;5053344;28;38567;-75
2022/05/18 04:48:05;;;;;;;28.13;20.02;;;17.40;99.90;;;;;;5052466;27;38136;-75
2022/05/18 04:50:31;;;;;;;23.02;16.20;;;17.60;99.90;;;;;;5058415;27;37418;-75
2022/05/18 04:52:57;;;;;;;19.30;14.88;;;17.70;99.90;;;;;;5057113;28;38337;-75
2022/05/18 04:55:23;;;;;;;16.92;12.48;;;17.90;99.90;;;;;;5055753;27;39177;-75
2022/05/18 04:57:49;;;;;;;17.02;12.27;;;18.00;99.90;;;;;;5052011;28;36898;-75
2022/05/18 05:00:16;;;;;;;15.20;10.90;;;18.10;99.90;;;;;;5051482;27;36207;-75
2022/05/18 05:02:42;;;;;;;13.23;10.27;;;18.20;99.90;;;;;;5050410;28;37772;-76
2022/05/18 05:05:13;;;;;;;13.15;11.18;;;18.20;99.90;;;;;;5057076;27;37582;-75
2022/05/18 05:07:39;;;;;;;13.07;10.27;;;18.30;99.90;;;;;;5044841;28;38109;-75
2022/05/18 05:10:07;;;;;;;14.30;11.23;;;18.30;99.90;;;;;;5048524;27;38139;-76
2022/05/18 05:12:34;;;;;;;13.75;9.88;;;18.40;99.90;;;;;;5046876;28;39135;-75
2022/05/18 05:15:00;;;;;;;15.00;9.75;;;18.40;99.90;;;;;;5049737;27;38811;-75
2022/05/18 05:17:26;;;;;;;14.13;9.43;;;18.50;99.90;;;;;;5049357;27;39062;-75
2022/05/18 05:19:52;;;;;;;13.85;10.10;;;18.50;99.90;;;;;;5042838;27;37311;-75
2022/05/18 05:22:18;;;;;;;11.93;8.80;;;18.50;99.90;;;;;;5044122;27;38933;-75
2022/05/18 05:24:44;;;;;;;13.52;9.50;;;18.50;99.90;;;;;;5046540;27;37080;-75
2022/05/18 05:27:11;;;;;;;14.20;8.77;;;18.50;99.90;;;;;;5049851;27;36773;-75
2022/05/18 05:29:37;;;;;;;12.82;8.40;;;18.50;99.90;;;;;;5052975;28;38681;-74
2022/05/18 05:32:08;;;;;;;10.95;8.55;;;18.50;99.90;;;;;;5052367;28;39749;-75
2022/05/18 05:34:34;;;;;;;13.30;9.95;;;18.50;99.90;;;;;;5044464;27;39168;-75
2022/05/18 05:37:01;;;;;;;14.63;9.35;;;18.40;99.90;;;;;;5047355;28;39201;-75
2022/05/18 05:39:27;;;;;;;14.00;9.57;;;18.40;99.90;;;;;;5045806;28;48850;-75
2022/05/18 05:41:53;;;;;;;10.82;8.70;;;18.40;99.90;;;;;;5046799;28;38797;-74
2022/05/18 05:44:20;;;;;;;14.13;9.32;;;18.30;99.90;;;;;;5044210;27;38125;-75
2022/05/18 05:46:46;;;;;;;12.38;8.70;;;18.30;99.90;;;;;;5042975;27;38864;-75
2022/05/18 05:49:12;;;;;;;15.32;9.25;;;18.30;99.90;;;;;;5058175;27;38465;-74
2022/05/18 05:51:39;;;;;;;12.68;8.10;;;18.30;99.90;;;;;;5057192;28;39309;-75
2022/05/18 05:54:05;;;;;;;10.50;7.32;;;18.40;99.90;;;;;;5053418;27;38511;-74
2022/05/18 05:56:31;;;;;;;10.15;6.68;;;18.60;99.90;;;;;;5045445;28;36969;-75
2022/05/18 05:58:58;;;;;;;12.15;6.85;;;18.80;99.90;;;;;;5047324;27;37285;-75
2022/05/18 06:01:25;;;;;;;9.90;6.00;;;18.90;99.90;;;;;;5054942;28;39536;-76
2022/05/18 06:03:51;;;;;;;15.93;7.32;;;19.20;99.90;;;;;;5056879;27;36181;-75
2022/05/18 06:06:19;;;;;;;8.63;5.07;;;19.30;99.90;;;;;;5050557;28;39742;-76
2022/05/18 06:08:45;;;;;;;10.60;5.90;;;19.40;99.90;;;;;;5052122;28;38206;-76
2022/05/18 06:11:11;;;;;;;8.05;4.90;;;19.40;99.90;;;;;;5049392;27;38688;-75
2022/05/18 06:13:38;;;;;;;8.55;5.10;;;19.50;99.90;;;;;;5053764;27;38403;-74
2022/05/18 06:16:06;;;;;;;9.63;5.20;;;19.70;99.90;;;;;;5054255;28;38065;-75
2022/05/18 06:18:33;;;;;;;10.48;5.05;;;19.90;99.90;;;;;;5061446;28;38770;-75
2022/05/18 06:20:59;;;;;;;11.13;5.00;;;19.90;99.90;;;;;;5053705;28;37874;-75
2022/05/18 06:23:26;;;;;;;10.75;4.68;;;19.90;99.90;;;;;;5060475;28;38407;-75
2022/05/18 06:25:52;;;;;;;9.35;3.80;;;20.00;99.90;;;;;;5047507;28;37749;-76
2022/05/18 06:28:18;;;;;;;9.50;4.35;;;20.00;99.90;;;;;;5048081;27;38175;-77
2022/05/18 06:30:45;;;;;;;10.70;5.15;;;19.90;99.90;;;;;;5054415;28;39729;-78
2022/05/18 06:33:11;;;;;;;11.48;4.78;;;19.90;99.90;;;;;;5051962;27;37869;-77
2022/05/18 06:35:37;;;;;;;9.70;4.18;;;19.90;99.90;;;;;;5046022;28;39811;-78
2022/05/18 06:38:15;;;;;;;6.10;3.53;;;20.10;99.90;;;;;;5050458;27;37203;-77
2022/05/18 06:43:27;;;;;;;7.40;3.70;;;20.30;99.90;;;;;;5051469;27;41633;-78
2022/05/18 06:45:53;;;;;;;8.23;3.50;;;20.30;99.90;;;;;;5036654;28;39849;-78
2022/05/18 06:48:19;;;;;;;6.95;3.60;;;20.50;99.90;;;;;;5050274;27;37623;-77
2022/05/18 06:50:46;;;;;;;9.38;4.07;;;20.70;99.90;;;;;;5054877;27;38512;-78
2022/05/18 06:53:12;;;;;;;8.43;3.22;;;20.90;99.90;;;;;;5057892;27;38293;-78
2022/05/18 06:55:38;;;;;;;6.38;3.30;;;21.10;99.90;;;;;;5052002;28;38688;-78
2022/05/18 06:58:04;;;;;;;6.35;3.35;;;21.40;99.90;;;;;;5048103;27;36436;-78
2022/05/18 07:00:30;;;;;;;9.00;3.58;;;21.40;99.90;;;;;;5054045;27;37688;-77
2022/05/18 07:02:56;;;;;;;5.28;3.25;;;21.40;99.90;;;;;;5056399;27;37758;-78
2022/05/18 07:05:23;;;;;;;7.65;3.63;;;21.30;99.90;;;;;;5064009;28;37519;-78
2022/05/18 07:07:49;;;;;;;6.72;3.65;;;21.30;99.90;;;;;;5057476;28;36650;-78
2022/05/18 07:10:15;;;;;;;7.38;3.95;;;21.30;99.90;;;;;;5051537;27;38695;-78
2022/05/18 07:12:41;;;;;;;8.80;3.00;;;21.30;99.90;;;;;;5052516;27;38517;-78
2022/05/18 07:15:08;;;;;;;9.48;3.28;;;21.40;99.90;;;;;;5051832;27;38044;-77
2022/05/18 07:17:34;;;;;;;8.77;3.90;;;21.30;99.90;;;;;;5035630;28;37663;-78
2022/05/18 07:20:04;;;;;;;8.52;3.40;;;21.40;99.90;;;;;;5054546;28;40503;-79
2022/05/18 07:22:30;;;;;;;5.20;3.20;;;21.50;99.90;;;;;;5049165;28;48680;-80
2022/05/18 07:24:56;;;;;;;6.18;3.17;;;21.60;99.90;;;;;;5056209;27;39221;-80
2022/05/18 07:27:22;;;;;;;8.80;3.83;;;22.00;99.90;;;;;;5053324;27;37233;-80
2022/05/18 07:29:48;;;;;;;11.93;4.57;;;22.10;99.90;;;;;;5057930;27;38870;-79
2022/05/18 07:32:16;;;;;;;9.38;4.90;;;22.30;99.90;;;;;;5060880;27;37897;-80
2022/05/18 07:34:44;;;;;;;6.68;3.92;;;22.30;99.90;;;;;;5054421;27;38404;-81
2022/05/18 07:37:12;;;;;;;11.63;5.40;;;22.20;99.90;;;;;;5058103;28;36181;-80
2022/05/18 07:39:39;;;;;;;11.95;4.78;;;22.10;99.90;;;;;;5056589;27;39537;-80
2022/05/18 07:42:06;;;;;;;8.25;4.65;;;22.20;99.90;;;;;;5062830;27;38634;-80
2022/05/18 07:44:34;;;;;;;12.43;5.82;;;22.40;99.90;;;;;;5063113;27;37528;-80
2022/05/18 07:47:02;;;;;;;9.70;5.18;;;22.60;99.90;;;;;;5067276;28;37164;-79
2022/05/18 07:49:34;;;;;;;11.00;5.85;;;22.70;99.90;;;;;;5062879;27;47228;-80
2022/05/18 07:52:00;;;;;;;11.35;5.18;;;22.70;99.90;;;;;;5062331;28;39225;-80
2022/05/18 07:54:26;;;;;;;12.60;4.35;;;22.80;99.90;;;;;;5065115;27;47235;-80
2022/05/18 07:56:52;;;;;;;11.07;4.03;;;22.80;99.90;;;;;;5063362;28;37959;-80
2022/05/18 07:59:18;;;;;;;10.13;4.38;;;22.90;99.90;;;;;;5066381;28;39738;-81
2022/05/18 08:01:44;;;;;;;11.40;3.80;;;23.00;99.90;;;;;;5062413;28;39261;-81
2022/05/18 08:04:11;;;;;;;13.98;3.50;;;23.20;99.90;;;;;;5063350;27;37880;-80
2022/05/18 08:06:37;;;;;;;10.50;3.70;;;23.20;99.90;;;;;;5059558;27;37821;-80
2022/05/18 08:09:03;;;;;;;9.80;4.65;;;23.40;99.90;;;;;;5060570;28;40547;-82
2022/05/18 08:16:59;;;;;;;10.32;5.28;;;23.00;99.90;;;;;;5061008;28;38078;-81
2022/05/18 08:19:25;;;;;;;13.65;6.18;;;22.80;99.90;;;;;;5060455;27;38589;-80
2022/05/18 08:21:51;;;;;;;11.90;5.30;;;22.90;99.90;;;;;;5055524;28;39394;-81
2022/05/18 08:24:17;;;;;;;11.40;5.30;;;23.20;99.90;;;;;;5059445;27;37523;-80
2022/05/18 08:26:43;;;;;;;12.88;7.10;;;23.50;99.90;;;;;;5064383;28;38513;-81
2022/05/18 08:29:10;;;;;;;16.30;7.00;;;23.60;99.90;;;;;;5064972;28;38772;-81
2022/05/18 08:31:36;;;;;;;14.02;7.07;;;23.40;99.90;;;;;;5059791;28;39647;-81
2022/05/18 08:34:03;;;;;;;14.00;6.57;;;23.60;99.90;;;;;;5061634;27;37676;-79
2022/05/18 08:36:31;;;;;;;12.93;6.18;;;23.50;99.90;;;;;;5045842;27;37413;-81
2022/05/18 08:38:58;;;;;;;12.55;6.35;;;23.60;99.90;;;;;;5063376;27;37990;-78
2022/05/18 08:41:41;;;;;;;14.35;6.28;;;23.60;99.90;;;;;;5060862;27;39757;-80
2022/05/18 08:44:09;;;;;;;17.40;8.40;;;23.80;99.90;;;;;;5062428;27;37843;-80
2022/05/18 08:46:43;;;;;;;15.27;8.45;;;23.90;99.90;;;;;;5060181;28;39210;-79
2022/05/18 08:49:09;;;;;;;16.02;7.13;;;23.70;99.90;;;;;;5057105;27;39761;-81
2022/05/18 08:52:01;;;;;;;16.33;8.55;;;23.70;99.90;;;;;;5056814;28;38529;-79
2022/05/18 08:54:59;;;;;;;10.30;6.75;;;23.70;99.90;;;;;;5086335;27;47219;-82
2022/05/18 08:57:29;;;;;;;17.27;7.78;;;23.70;99.90;;;;;;5046459;28;39377;-81
2022/05/18 08:59:58;;;;;;;17.83;8.57;;;24.00;99.90;;;;;;5058898;28;40348;-80
2022/05/18 09:02:29;;;;;;;20.05;8.48;;;23.80;99.90;;;;;;5061523;27;38846;-80
2022/05/18 09:05:10;;;;;;;13.10;7.03;;;23.90;99.90;;;;;;5054053;27;38047;-79
2022/05/18 09:08:02;;;;;;;11.37;6.40;;;23.90;99.90;;;;;;5058433;28;47238;-80
2022/05/18 09:10:35;;;;;;;16.75;9.27;;;24.00;99.90;;;;;;5043150;27;48324;-79
2022/05/18 09:13:02;;;;;;;13.43;8.13;;;24.30;99.90;;;;;;5059205;28;38154;-80
2022/05/18 09:15:35;;;;;;;14.63;7.18;;;24.40;99.90;;;;;;5061888;27;49048;-79
2022/05/18 09:18:12;;;;;;;15.65;8.20;;;24.50;99.90;;;;;;5054769;28;36480;-81
2022/05/18 09:20:58;;;;;;;14.45;7.32;;;24.50;99.90;;;;;;5061229;28;47653;-80
2022/05/18 09:23:41;;;;;;;10.93;7.22;;;24.50;99.90;;;;;;5055329;28;38449;-80
2022/05/18 09:26:44;;;;;;;11.60;7.88;;;24.70;99.90;;;;;;5046112;28;37133;-80
2022/05/18 09:29:38;;;;;;;14.38;6.88;;;24.60;99.90;;;;;;5058577;28;37492;-77
2022/05/18 09:32:04;;;;;;;8.57;5.53;;;24.70;99.90;;;;;;5053807;28;37836;-77
2022/05/18 09:35:01;;;;;;;10.90;5.80;;;24.70;99.90;;;;;;5057674;27;37223;-78
2022/05/18 09:37:30;;;;;;;14.23;6.93;;;24.70;99.90;;;;;;5053737;28;47171;-77
2022/05/18 09:40:16;;;;;;;15.30;6.45;;;24.70;99.90;;;;;;5063656;27;37178;-78
2022/05/18 09:42:52;;;;;;;13.65;7.00;;;24.60;99.90;;;;;;5061548;27;48578;-78
2022/05/18 09:45:26;;;;;;;12.43;6.35;;;24.60;99.90;;;;;;5057266;27;38040;-78
2022/05/18 09:47:57;;;;;;;10.77;7.13;;;24.80;99.90;;;;;;5058760;28;38880;-78
2022/05/18 09:50:24;;;;;;;8.93;5.93;;;25.00;99.90;;;;;;5057029;28;35968;-81
2022/05/18 09:52:51;;;;;;;14.25;7.47;;;25.10;99.90;;;;;;5063133;27;39664;-80
2022/05/18 09:55:21;;;;;;;11.43;6.72;;;25.40;99.90;;;;;;5059559;28;37793;-81
2022/05/18 09:58:09;;;;;;;9.82;6.93;;;25.30;99.90;;;;;;5058775;28;37248;-80
2022/05/18 10:00:38;;;;;;;14.32;7.65;;;24.70;99.90;;;;;;5048026;28;47382;-79
2022/05/18 10:08:57;;;;;;;11.80;5.55;;;25.30;99.90;;;;;;5069106;27;49308;-81
2022/05/18 10:11:29;;;;;;;9.45;6.07;;;25.50;99.90;;;;;;5064480;28;38929;-81
2022/05/18 10:14:06;;;;;;;7.32;5.00;;;25.90;99.90;;;;;;5060691;28;39112;-82
2022/05/18 10:17:01;;;;;;;8.50;4.13;;;25.90;99.90;;;;;;5065461;28;48114;-82
2022/05/18 10:19:42;;;;;;;8.88;3.35;;;26.10;99.90;;;;;;5093488;27;47296;-82
2022/05/18 10:22:13;;;;;;;7.20;3.77;;;25.10;99.90;;;;;;5054408;27;37596;-84
2022/05/18 10:25:03;;;;;;;6.93;3.85;;;25.00;99.90;;;;;;5077427;27;40518;-80
2022/05/18 10:27:34;;;;;;;8.20;3.35;;;24.50;99.90;;;;;;5052253;27;48946;-81
2022/05/18 10:30:18;;;;;;;6.20;3.17;;;24.50;99.90;;;;;;5049715;28;37891;-81
2022/05/18 10:32:58;;;;;;;6.45;3.10;;;24.60;99.90;;;;;;5056347;28;47395;-78
2022/05/18 10:35:41;;;;;;;7.90;3.25;;;24.50;99.90;;;;;;5054228;27;38978;-79
2022/05/18 10:38:16;;;;;;;11.07;3.13;;;24.60;99.90;;;;;;5055130;28;38882;-79
2022/05/18 10:40:43;;;;;;;6.32;2.60;;;24.80;99.90;;;;;;5059759;27;35878;-80
2022/05/18 10:43:29;;;;;;;3.80;1.90;;;24.70;99.90;;;;;;5060851;27;37290;-82
2022/05/18 10:46:07;;;;;;;6.88;2.17;;;24.90;99.90;;;;;;5063902;27;39858;-78
2022/05/18 10:48:34;;;;;;;10.05;2.90;;;24.80;99.90;;;;;;5066037;28;47246;-81
2022/05/18 10:51:06;;;;;;;5.63;2.00;;;24.40;99.90;;;;;;5063009;28;38520;-78
2022/05/18 10:53:39;;;;;;;7.50;2.10;;;24.20;99.90;;;;;;5088291;27;47453;-79
2022/05/18 10:56:09;;;;;;;4.93;2.05;;;23.90;99.90;;;;;;5063532;28;39404;-79
2022/05/18 10:58:51;;;;;;;3.92;1.27;;;23.70;99.90;;;;;;5064344;28;38588;-80
2022/05/18 11:01:22;;;;;;;;;;;23.80;99.90;;;;;;5077064;27;40036;-79
2022/05/18 11:03:57;;;;;;;4.15;1.60;;;24.10;99.90;;;;;;5059968;28;38479;-79
2022/05/18 11:06:35;;;;;;;4.80;2.30;;;24.50;99.90;;;;;;5056364;27;39278;-78
2022/05/18 11:09:07;;;;;;;5.65;1.75;;;24.40;99.90;;;;;;5051909;28;39328;-80
2022/05/18 11:11:48;;;;;;;5.15;1.92;;;24.90;99.90;;;;;;5068113;28;47173;-82
2022/05/18 11:14:25;;;;;;;5.82;1.90;;;25.30;99.90;;;;;;5058596;28;37344;-79
2022/05/18 11:17:10;;;;;;;6.55;2.17;;;25.50;99.90;;;;;;5056652;28;40734;-78
2022/05/18 11:19:47;;;;;;;5.15;2.10;;;25.10;99.90;;;;;;5055881;27;48237;-81
2022/05/18 11:22:41;;;;;;;8.40;2.30;;;24.80;99.90;;;;;;5051993;28;39176;-79
2022/05/18 11:25:22;;;;;;;4.65;2.13;;;24.90;99.90;;;;;;5063132;27;38229;-78
2022/05/18 11:28:13;;;;;;;6.43;1.90;;;24.90;99.90;;;;;;5060985;28;40033;-79
2022/05/18 11:30:58;;;;;;;5.63;2.90;;;24.70;99.90;;;;;;5049330;28;47139;-79
2022/05/18 11:33:59;;;;;;;7.53;2.60;;;24.70;99.90;;;;;;5067886;28;39138;-79
2022/05/18 11:36:53;;;;;;;7.00;2.92;;;25.00;99.90;;;;;;5060202;27;38800;-79
2022/05/18 11:40:06;;;;;;;4.85;3.05;;;25.00;99.90;;;;;;5060871;27;38144;-80
2022/05/18 11:42:59;;;;;;;6.32;2.80;;;24.80;99.90;;;;;;5054841;27;48738;-80
2022/05/18 11:45:47;;;;;;;5.95;3.03;;;24.90;99.90;;;;;;5061921;27;38278;-80
2022/05/18 11:48:38;;;;;;;7.50;3.60;;;25.10;99.90;;;;;;5048321;28;36496;-79
2022/05/18 11:51:13;;;;;;;9.52;3.78;;;25.30;99.90;;;;;;5062956;27;38721;-80
2022/05/18 11:53:48;;;;;;;5.28;3.08;;;25.20;99.90;;;;;;5060582;27;38401;-81
2022/05/18 11:56:34;;;;;;;7.85;3.25;;;25.00;99.90;;;;;;5053713;27;39033;-80
2022/05/18 12:01:57;;;;;;;6.18;2.78;;;25.30;99.90;;;;;;5047553;28;48619;-78
2022/05/18 12:04:49;;;;;;;8.73;2.70;;;25.60;99.90;;;;;;5059279;27;38579;-79
2022/05/18 12:07:23;;;;;;;8.45;2.40;;;25.90;99.90;;;;;;5053052;28;37488;-78
2022/05/18 12:09:55;;;;;;;4.80;2.30;;;25.60;99.90;;;;;;5049015;28;36865;-78
2022/05/18 12:12:32;;;;;;;;;;;25.60;99.90;;;;;;5055380;27;40422;-78
2022/05/18 12:15:17;;;;;;;5.05;2.00;;;25.70;99.90;;;;;;5055376;28;38909;-78
2022/05/18 12:17:52;;;;;;;3.92;1.75;;;25.70;99.90;;;;;;5058070;28;47242;-79
2022/05/18 12:20:22;;;;;;;6.05;2.08;;;25.80;99.90;;;;;;5055295;28;37420;-77
2022/05/18 12:22:51;;;;;;;4.93;2.47;;;26.00;99.90;;;;;;5092370;27;39085;-78
2022/05/18 12:25:21;;;;;;;3.20;2.05;;;26.20;99.90;;;;;;5061478;27;39200;-78
2022/05/18 12:27:48;;;;;;;4.63;2.30;;;26.10;99.90;;;;;;5057771;27;40177;-77
2022/05/18 12:30:18;;;;;;;5.05;2.40;;;26.20;99.90;;;;;;5063924;27;37957;-77
2022/05/18 12:32:46;;;;;;;5.35;2.90;;;26.20;99.90;;;;;;5064213;27;37428;-78
2022/05/18 12:35:25;;;;;;;5.25;2.17;;;25.90;99.90;;;;;;5056481;27;38626;-78
2022/05/18 12:38:08;;;;;;;6.03;2.30;;;25.70;99.90;;;;;;5053942;28;39089;-75
2022/05/18 12:41:02;;;;;;;6.13;2.17;;;26.20;99.90;;;;;;5092223;27;47400;-75
2022/05/18 12:43:44;;;;;;;2.92;2.08;;;25.80;99.90;;;;;;5074465;28;48762;-76
2022/05/18 12:46:16;;;;;;;3.63;1.58;;;26.00;99.90;;;;;;5069176;28;40438;-76
2022/05/18 12:48:58;;;;;;;;;;;26.10;99.90;;;;;;5080891;28;39540;-75
2022/05/18 12:51:27;;;;;;;8.00;2.22;;;25.80;99.90;;;;;;5104035;27;39000;-76
2022/05/18 12:54:38;;;;;;;6.78;2.47;;;26.00;99.90;;;;;;5066025;28;38756;-75
2022/05/18 12:57:10;;;;;;;7.25;2.67;;;26.00;99.90;;;;;;5059324;28;49098;-76
2022/05/18 12:59:56;;;;;;;5.60;1.90;;;26.10;99.90;;;;;;5075133;28;38906;-75
2022/05/18 13:02:37;;;;;;;6.03;2.60;;;26.50;99.90;;;;;;5082497;28;38082;-76
2022/05/18 13:05:54;;;;;;;6.93;2.38;;;26.10;99.90;;;;;;5076460;28;39463;-75
2022/05/18 13:08:23;;;;;;;6.00;2.08;;;25.80;99.90;;;;;;5076951;27;38461;-76
2022/05/18 13:11:14;;;;;;;4.28;1.88;;;25.80;99.90;;;;;;5072918;27;39372;-76
2022/05/18 13:14:19;;;;;;;3.92;1.73;;;25.80;99.90;;;;;;5067129;28;49101;-76
2022/05/18 13:16:48;;;;;;;5.00;1.65;;;25.60;99.90;;;;;;5083766;28;47210;-75
2022/05/18 13:19:14;;;;;;;5.80;2.28;;;25.90;99.90;;;;;;5087260;28;39129;-76
2022/05/18 13:21:46;;;;;;;2.83;1.48;;;25.90;99.90;;;;;;5078911;27;39161;-76